Portada
METAR-TAF:

METAR-TAF

Aeropuertos :

Aeropuerto de Rostock-Laage

Rostock, Alemania

latitud: 53-55N, longitud: 012-17E, altitud: 40 m

Observación

El informe se hizo hace 39 minutos, a las 00:20 UTC
Viento 4 kt del sureste
Temperatura 9°C
Humedad 87%
Presión 1003 hPa
Visibilidad 10 km o más
Escasas nubes a una altura de 10000 ft

METAR: ETNL 070020Z 13004KT 9999 FEW100 09/07 Q1003 BLU+

Hora: 02:59 (00:59 UTC)

Pronóstico

El informe se hizo hace 2 horas y 59 minutos, a las 22:00 UTC
Pronóstico válido del 06 a las 23 UTC al 07 a las 11 UTC
Viento 5 kt del sur-sureste
Visibilidad 10 km o más
Nubes dispersas a una altura de 4000 ft
Probabilidad 30%
del 07 a las 02 UTC al 07 a las 06 UTC
Viento 3 kt con dirección variable
Visibilidad: 3000 m
Escasas nubes a una altura de 4000 ft
Niebla baja

TAF: ETNL 062200Z 0623/0711 15005KT 9999 NSW SCT040 PROB30 0702/0706 VRB03KT 3000 MIFG FEW040 BY ETGL

Observaciones y pronósticos meteorológicos de más de 4000 aeropuertos (mensajes METAR y TAF).

Los puntos amarillos y rojos representan las estaciones disponibles.

Ponga el ratón en el punto deseado para ver el nombre de la estación.

Haga clic para ver las observaciones y los pronósticos meteorológicos.

Para cambiar el mapa : haga clic en los botones verdes con una cruz de color negro para hacer un zoom, en el botón verde con un guión para alejar o en las flechas verdes para mapas adyacentes.


METAR-TAF: